Metar - Laupheim Airfield

[Source: ADDS]
METAR
ETHL 270520Z 00000KT 0100 FG VV000 03/03 Q1027 RED RED =
ETHL 270410Z 2705/2714 VRB02KT 0300 FG VV000 BECMG 2710/2712 06005KT 8000 NSW FEW004
TAF
ETHL 270410Z 2705/2714 VRB02KT 0300 FG VV000 BECMG 2710/2712 06005KT 8000 NSW FEW004 =

Notice: Undefined index: sun in /homepages/1/d158740339/htdocs/joomla/modules/mod_wx/tmpl/default.php on line 13

Metar - Augsburg Airfield

[Source: ADDS]
METAR
EDMA 270550Z 19001KT 0750 R25/1500D FG VV002 03/02 Q1027 =
EDMA 270500Z 2706/2715 VRB03KT 0700 FG BKN002 PROB30 TEMPO 2706/2709 0250 FG BKN001 BECMG 2709/2711 7000 SCT012
TAF
EDMA 270500Z 2706/2715 VRB03KT 0700 FG BKN002 PROB30 TEMPO 2706/2709 0250 FG BKN001 BECMG 2709/2711 7000 SCT012 =
SR / SS: 05:57 / 16:08 UTC (Günzburg 2021-10-27)

Metar - Memmingen Airfield

[Source: ADDS]
METAR
EDJA 270550Z VRB01KT 9000 R24/0600D FEW003 01/00 Q1027 =
EDJA 270500Z 2706/2715 VRB03KT 8000 SCT008 PROB30 TEMPO 2706/2709 2000 BCFG BKN008 BECMG 2710/2712 05007KT
TAF
EDJA 270500Z 2706/2715 VRB03KT 8000 SCT008 PROB30 TEMPO 2706/2709 2000 BCFG BKN008 BECMG 2710/2712 05007KT =

Notice: Undefined index: sun in /homepages/1/d158740339/htdocs/joomla/modules/mod_wx/tmpl/default.php on line 13

Metar - Neuburg/Donau Airfield

[Source: ADDS]
METAR
ETSN 270520Z 00000KT 0100 FG VV001 04/04 Q1027 RED RED =
ETSN 270356Z 2705/2714 VRB02KT 0400 FG VV001 BECMG 2709/2711 10004KT 3000 BR BKN003 BECMG 2711/2713 08005KT 5000 BR BKN010 BECMG 2713/2714 08005KT 9999 NSW FEW015 BY ETGL
TAF
ETSN 270356Z 2705/2714 VRB02KT 0400 FG VV001 BECMG 2709/2711 10004KT 3000 BR BKN003 BECMG 2711/2713 08005KT 5000 BR BKN010 BECMG 2713/2714 08005KT 9999 NSW FEW015 BY ETGL =

Notice: Undefined index: sun in /homepages/1/d158740339/htdocs/joomla/modules/mod_wx/tmpl/default.php on line 13

Metar - Stuttgart Airfield

[Source: ADDS]
METAR
EDDS 270550Z VRB01KT 0400 R07/P2000N FG SCT001 01/01 Q1027 TEMPO 0300 BKN001 =
EDDS 270500Z 2706/2806 VRB02KT 0800 FG SCT001 TEMPO 2706/2709 0200 FG VV001 BECMG 2709/2711 9999 BECMG 2722/2724 4000 BR TEMPO 2800/2806 0300 FG BKN002
TAF
EDDS 270500Z 2706/2806 VRB02KT 0800 FG SCT001 TEMPO 2706/2709 0200 FG VV001 BECMG 2709/2711 9999 BECMG 2722/2724 4000 BR TEMPO 2800/2806 0300 FG BKN002 =

Notice: Undefined index: sun in /homepages/1/d158740339/htdocs/joomla/modules/mod_wx/tmpl/default.php on line 13

Metar - Niederstetten Airfield

[Source: ADDS]
METAR
ETHN 270520Z 21005KT 9999 VCFG FEW027 BKN360 06/06 Q1026 BLU+BLU+ =
ETHN 270423Z 2705/2714 18005KT 9999 NSW SCT020 TEMPO 2705/2709 VRB03KT 0500 FG VV001
TAF
ETHN 270423Z 2705/2714 18005KT 9999 NSW SCT020 TEMPO 2705/2709 VRB03KT 0500 FG VV001 =

Notice: Undefined index: sun in /homepages/1/d158740339/htdocs/joomla/modules/mod_wx/tmpl/default.php on line 13